Time;durP1;ratioP1;P1;durP2;ratioP2;P2;SDS_P1;SDS_P2;PMS_P1;PMS_P2;Temp;Humidity;BMP_temperature;BMP_pressure;BME280_temperature;BME280_humidity;BME280_pressure;Samples;Min_cycle;Max_cycle;Signal;HPM_P1;HPM_P2
2021/05/28 00:00:13;;;;;;;5.23;2.97;;;;;;;;;;5053521;28;20436;-60
2021/05/28 00:02:40;;;;;;;11.07;3.30;;;;;;;;;;5053673;28;20566;-59
2021/05/28 00:05:07;;;;;;;7.03;3.13;;;;;;;;;;5053344;28;20444;-59
2021/05/28 00:07:34;;;;;;;6.00;2.83;;;;;;;;;;5053299;28;20444;-59
2021/05/28 00:10:01;;;;;;;4.37;2.97;;;;;;;;;;5053262;28;20472;-61
2021/05/28 00:12:29;;;;;;;6.00;2.93;;;;;;;;;;5053488;28;20523;-61
2021/05/28 00:14:56;;;;;;;5.70;3.90;;;;;;;;;;5053086;28;20797;-61
2021/05/28 00:17:24;;;;;;;5.33;3.07;;;;;;;;;;5052965;28;20452;-61
2021/05/28 00:19:50;;;;;;;8.30;3.50;;;;;;;;;;5053145;28;20451;-60
2021/05/28 00:22:17;;;;;;;6.70;4.23;;;;;;;;;;5053130;28;20471;-61
2021/05/28 00:24:44;;;;;;;7.50;3.53;;;;;;;;;;5056966;28;20444;-61
2021/05/28 00:27:11;;;;;;;11.77;3.57;;;;;;;;;;5057348;28;20850;-61
2021/05/28 00:29:37;;;;;;;10.63;3.65;;;;;;;;;;5056895;28;21005;-61
2021/05/28 00:32:04;;;;;;;8.90;3.60;;;;;;;;;;5056843;28;20229;-61
2021/05/28 00:34:32;;;;;;;6.87;3.83;;;;;;;;;;5056841;28;20474;-61
2021/05/28 00:36:59;;;;;;;8.43;4.10;;;;;;;;;;5057301;28;20448;-61
2021/05/28 00:39:26;;;;;;;7.05;3.38;;;;;;;;;;5056840;28;20604;-61
2021/05/28 00:41:52;;;;;;;5.93;3.75;;;;;;;;;;5056748;28;20229;-60
2021/05/28 00:44:21;;;;;;;6.20;2.65;;;;;;;;;;5056808;28;20202;-61
2021/05/28 00:46:48;;;;;;;5.53;3.13;;;;;;;;;;5057298;28;20202;-61
2021/05/28 00:49:15;;;;;;;7.97;3.63;;;;;;;;;;5056879;28;20480;-61
2021/05/28 00:51:43;;;;;;;6.75;3.20;;;;;;;;;;5056930;28;20217;-61
2021/05/28 00:54:10;;;;;;;9.73;3.55;;;;;;;;;;5056905;28;20209;-61
2021/05/28 00:56:37;;;;;;;6.82;3.60;;;;;;;;;;5056845;28;20296;-60
2021/05/28 00:59:04;;;;;;;6.63;3.30;;;;;;;;;;5056908;28;20208;-60
2021/05/28 01:01:31;;;;;;;8.00;4.35;;;;;;;;;;5056560;28;20226;-61
2021/05/28 01:03:58;;;;;;;5.85;3.45;;;;;;;;;;5056763;28;20209;-60
2021/05/28 01:06:25;;;;;;;6.63;3.80;;;;;;;;;;5056228;28;20202;-60
2021/05/28 01:08:53;;;;;;;5.35;3.90;;;;;;;;;;5056146;28;20213;-62
2021/05/28 01:11:19;;;;;;;7.72;3.35;;;;;;;;;;5056569;28;20271;-61
2021/05/28 01:13:46;;;;;;;6.90;3.97;;;;;;;;;;5056585;28;20202;-60
2021/05/28 01:16:13;;;;;;;11.55;3.92;;;;;;;;;;5056466;28;20205;-60
2021/05/28 01:18:40;;;;;;;13.82;4.45;;;;;;;;;;5056527;28;20202;-60
2021/05/28 01:21:07;;;;;;;7.70;3.60;;;;;;;;;;5056319;28;20202;-62
2021/05/28 01:23:36;;;;;;;7.97;4.70;;;;;;;;;;5056377;28;20455;-60
2021/05/28 01:26:02;;;;;;;7.38;4.05;;;;;;;;;;5056247;28;20206;-60
2021/05/28 01:28:29;;;;;;;9.70;3.90;;;;;;;;;;5056215;28;20221;-60
2021/05/28 01:30:58;;;;;;;10.40;3.90;;;;;;;;;;5055822;28;20213;-61
2021/05/28 01:33:25;;;;;;;5.38;3.58;;;;;;;;;;5055758;28;20205;-61
2021/05/28 01:35:52;;;;;;;7.40;4.32;;;;;;;;;;5055191;28;20209;-61
2021/05/28 01:38:19;;;;;;;9.30;4.90;;;;;;;;;;5055642;28;20680;-60
2021/05/28 01:40:46;;;;;;;9.38;3.97;;;;;;;;;;5055697;28;20201;-60
2021/05/28 01:43:13;;;;;;;9.82;4.28;;;;;;;;;;5055716;28;20284;-60
2021/05/28 01:45:40;;;;;;;8.02;4.47;;;;;;;;;;5055891;28;20208;-60
2021/05/28 01:48:07;;;;;;;11.35;5.10;;;;;;;;;;5055770;28;20202;-60
2021/05/28 01:50:43;;;;;;;9.02;4.43;;;;;;;;;;5056011;28;20206;-60
2021/05/28 01:53:10;;;;;;;9.20;4.40;;;;;;;;;;5055693;28;20225;-60
2021/05/28 01:55:36;;;;;;;6.68;4.38;;;;;;;;;;5055766;28;20205;-60
2021/05/28 01:58:07;;;;;;;12.23;4.85;;;;;;;;;;5056290;28;20213;-60
2021/05/28 02:00:34;;;;;;;9.80;4.82;;;;;;;;;;5055591;28;20186;-60
2021/05/28 02:03:01;;;;;;;10.73;4.65;;;;;;;;;;5055401;28;20222;-61
2021/05/28 02:05:27;;;;;;;7.32;4.97;;;;;;;;;;5055192;28;20572;-61
2021/05/28 02:07:54;;;;;;;7.30;5.30;;;;;;;;;;5055395;28;20205;-61
2021/05/28 02:10:21;;;;;;;11.50;5.85;;;;;;;;;;5055366;28;20213;-61
2021/05/28 02:12:48;;;;;;;7.50;5.03;;;;;;;;;;5055247;28;20228;-61
2021/05/28 02:15:16;;;;;;;10.13;5.32;;;;;;;;;;5054955;28;20198;-61
2021/05/28 02:17:43;;;;;;;9.95;5.07;;;;;;;;;;5054967;28;20673;-61
2021/05/28 02:20:10;;;;;;;7.45;4.70;;;;;;;;;;5055418;28;20205;-61
2021/05/28 02:22:37;;;;;;;12.90;5.63;;;;;;;;;;5055094;28;20233;-61
2021/05/28 02:25:05;;;;;;;11.73;4.90;;;;;;;;;;5055032;28;20205;-61
2021/05/28 02:27:32;;;;;;;9.82;5.00;;;;;;;;;;5055257;28;20208;-61
2021/05/28 02:29:59;;;;;;;8.98;5.25;;;;;;;;;;5054979;28;20274;-61
2021/05/28 02:32:27;;;;;;;10.02;6.18;;;;;;;;;;5083902;22;20230;-64
2021/05/28 02:34:54;;;;;;;8.95;5.35;;;;;;;;;;5067260;28;20283;-63
2021/05/28 02:37:21;;;;;;;12.43;5.70;;;;;;;;;;5054988;28;20209;-62
2021/05/28 02:39:48;;;;;;;13.00;5.35;;;;;;;;;;5054574;28;20570;-63
2021/05/28 02:42:14;;;;;;;9.25;5.35;;;;;;;;;;5054702;28;20228;-63
2021/05/28 02:44:41;;;;;;;9.15;4.78;;;;;;;;;;5054664;28;20197;-63
2021/05/28 02:47:08;;;;;;;11.23;5.47;;;;;;;;;;5053549;28;20198;-63
2021/05/28 02:49:36;;;;;;;11.50;5.45;;;;;;;;;;5054251;28;20221;-62
2021/05/28 02:52:03;;;;;;;9.80;5.80;;;;;;;;;;5054710;28;20256;-63
2021/05/28 02:54:30;;;;;;;7.60;5.90;;;;;;;;;;5055107;28;20228;-63
2021/05/28 02:56:57;;;;;;;11.63;5.30;;;;;;;;;;5054701;28;20205;-63
2021/05/28 02:59:24;;;;;;;10.52;5.63;;;;;;;;;;5054516;28;20198;-63
2021/05/28 03:01:51;;;;;;;12.20;6.43;;;;;;;;;;5054159;28;20225;-64
2021/05/28 03:04:18;;;;;;;10.20;6.10;;;;;;;;;;5054570;28;20615;-63
2021/05/28 03:06:45;;;;;;;8.75;6.20;;;;;;;;;;5054653;28;20208;-63
2021/05/28 03:09:12;;;;;;;11.45;6.75;;;;;;;;;;5054641;28;20712;-63
2021/05/28 03:11:39;;;;;;;8.82;6.45;;;;;;;;;;5054199;28;20696;-64
2021/05/28 03:14:05;;;;;;;12.20;5.38;;;;;;;;;;5054904;28;20201;-65
2021/05/28 03:16:33;;;;;;;9.50;5.95;;;;;;;;;;5054489;28;20206;-64
2021/05/28 03:19:02;;;;;;;9.50;5.90;;;;;;;;;;5054581;28;20304;-65
2021/05/28 03:21:39;;;;;;;13.43;7.15;;;;;;;;;;5053429;28;20436;-63
2021/05/28 03:24:07;;;;;;;8.35;6.22;;;;;;;;;;5054577;28;20581;-63
2021/05/28 03:26:34;;;;;;;10.20;6.00;;;;;;;;;;5053916;28;20204;-63
2021/05/28 03:29:02;;;;;;;12.23;6.32;;;;;;;;;;5054160;28;20561;-63
2021/05/28 03:31:29;;;;;;;7.00;5.43;;;;;;;;;;5054343;28;20266;-63
2021/05/28 03:33:55;;;;;;;8.43;6.03;;;;;;;;;;5054108;28;20206;-63
2021/05/28 03:36:22;;;;;;;15.55;6.10;;;;;;;;;;5053742;28;20698;-63
2021/05/28 03:38:49;;;;;;;13.50;5.80;;;;;;;;;;5054052;28;20206;-62
2021/05/28 03:41:17;;;;;;;7.70;5.78;;;;;;;;;;5053955;28;20205;-63
2021/05/28 03:43:44;;;;;;;10.68;6.80;;;;;;;;;;5053555;28;20299;-63
2021/05/28 03:46:11;;;;;;;12.30;5.75;;;;;;;;;;5053785;28;20202;-62
2021/05/28 03:48:37;;;;;;;12.18;6.13;;;;;;;;;;5053528;28;20209;-63
2021/05/28 03:51:04;;;;;;;10.70;6.10;;;;;;;;;;5053278;28;20217;-62
2021/05/28 03:53:31;;;;;;;9.50;5.22;;;;;;;;;;5053691;28;20225;-62
2021/05/28 03:55:58;;;;;;;10.30;6.32;;;;;;;;;;5053471;28;20591;-63
2021/05/28 03:58:26;;;;;;;9.27;5.38;;;;;;;;;;5052871;28;20228;-63
2021/05/28 04:00:52;;;;;;;7.47;4.88;;;;;;;;;;5053337;28;20201;-62
2021/05/28 04:08:09;;;;;;;7.53;4.47;;;;;;;;;;5091481;27;20586;-58
2021/05/28 04:10:35;;;;;;;8.83;4.77;;;;;;;;;;5091425;28;20254;-57
2021/05/28 04:13:02;;;;;;;5.80;3.87;;;;;;;;;;5090894;28;20508;-59
2021/05/28 04:15:29;;;;;;;5.20;3.70;;;;;;;;;;5090542;28;20950;-60
2021/05/28 04:17:56;;;;;;;8.10;4.13;;;;;;;;;;5090487;28;20943;-58
2021/05/28 04:20:23;;;;;;;9.77;5.00;;;;;;;;;;5091941;28;20938;-58
2021/05/28 04:22:49;;;;;;;9.27;4.30;;;;;;;;;;5090954;28;20496;-59
2021/05/28 04:25:17;;;;;;;8.47;4.30;;;;;;;;;;5090558;28;20470;-58
2021/05/28 04:27:44;;;;;;;5.57;3.53;;;;;;;;;;5090654;28;20985;-58
2021/05/28 04:30:11;;;;;;;9.30;4.10;;;;;;;;;;5090415;28;20450;-58
2021/05/28 04:32:38;;;;;;;6.60;3.83;;;;;;;;;;5090537;28;20439;-58
2021/05/28 04:35:05;;;;;;;6.87;3.60;;;;;;;;;;5091658;28;20481;-58
2021/05/28 04:37:32;;;;;;;7.70;3.60;;;;;;;;;;5090832;28;20516;-58
2021/05/28 04:39:58;;;;;;;6.90;3.70;;;;;;;;;;5089962;28;20450;-58
2021/05/28 04:42:26;;;;;;;6.67;3.60;;;;;;;;;;5090235;28;20496;-58
2021/05/28 04:44:53;;;;;;;10.70;4.13;;;;;;;;;;5089868;28;20473;-58
2021/05/28 04:47:19;;;;;;;8.63;4.00;;;;;;;;;;5090162;28;20475;-59
2021/05/28 04:49:46;;;;;;;6.27;4.30;;;;;;;;;;5090299;28;20494;-59
2021/05/28 04:52:13;;;;;;;6.83;3.90;;;;;;;;;;5090667;28;20529;-59
2021/05/28 04:54:40;;;;;;;5.57;4.03;;;;;;;;;;5089638;28;21000;-59
2021/05/28 04:57:07;;;;;;;7.40;4.53;;;;;;;;;;5089864;28;20442;-59
2021/05/28 04:59:34;;;;;;;9.40;4.80;;;;;;;;;;5089909;28;20447;-57
2021/05/28 05:02:01;;;;;;;10.23;5.00;;;;;;;;;;5090463;28;20453;-58
2021/05/28 05:04:28;;;;;;;10.80;6.07;;;;;;;;;;5089806;28;20466;-57
2021/05/28 05:06:54;;;;;;;8.60;7.00;;;;;;;;;;5089235;28;20490;-59
2021/05/28 05:09:21;;;;;;;9.10;6.93;;;;;;;;;;5089785;28;20450;-59
2021/05/28 05:11:48;;;;;;;8.43;7.30;;;;;;;;;;5089727;28;20851;-59
2021/05/28 05:14:15;;;;;;;10.70;7.17;;;;;;;;;;5089169;28;20517;-58
2021/05/28 05:16:42;;;;;;;9.70;7.80;;;;;;;;;;5089500;28;20484;-59
2021/05/28 05:19:09;;;;;;;10.33;8.70;;;;;;;;;;5077660;28;20993;-59
2021/05/28 05:21:36;;;;;;;13.23;8.47;;;;;;;;;;5075989;28;20493;-58
2021/05/28 05:24:02;;;;;;;9.97;7.23;;;;;;;;;;5075637;28;20474;-60
2021/05/28 05:26:29;;;;;;;10.27;7.67;;;;;;;;;;5075501;28;20528;-59
2021/05/28 05:28:56;;;;;;;7.43;6.60;;;;;;;;;;5075989;28;20447;-61
2021/05/28 05:31:23;;;;;;;7.80;6.30;;;;;;;;;;5075805;28;20516;-58
2021/05/28 05:33:51;;;;;;;8.00;5.40;;;;;;;;;;5075490;28;20869;-60
2021/05/28 05:36:17;;;;;;;9.90;6.40;;;;;;;;;;5075852;28;20444;-57
2021/05/28 05:38:44;;;;;;;11.03;6.77;;;;;;;;;;5075972;28;20439;-57
2021/05/28 05:41:11;;;;;;;7.30;5.53;;;;;;;;;;5075889;28;20439;-57
2021/05/28 05:43:38;;;;;;;8.43;5.97;;;;;;;;;;5075788;28;20447;-57
2021/05/28 05:46:04;;;;;;;10.93;6.40;;;;;;;;;;5075434;28;20786;-57
2021/05/28 05:48:31;;;;;;;9.67;6.53;;;;;;;;;;5075713;28;20495;-57
2021/05/28 05:50:59;;;;;;;12.43;6.73;;;;;;;;;;5075648;28;20846;-57
2021/05/28 05:53:25;;;;;;;9.33;6.37;;;;;;;;;;5075329;28;20443;-58
2021/05/28 05:55:52;;;;;;;12.13;6.10;;;;;;;;;;5075599;28;20444;-58
2021/05/28 05:58:19;;;;;;;13.40;7.60;;;;;;;;;;5103070;22;20547;-60
2021/05/28 06:00:46;;;;;;;13.83;8.00;;;;;;;;;;5036129;28;20445;-57
2021/05/28 06:03:12;;;;;;;8.17;7.37;;;;;;;;;;5035381;28;20445;-58
2021/05/28 06:05:39;;;;;;;9.93;7.00;;;;;;;;;;5035317;28;20469;-58
2021/05/28 06:08:07;;;;;;;11.07;7.20;;;;;;;;;;5035279;28;20482;-60
2021/05/28 06:10:34;;;;;;;9.83;6.90;;;;;;;;;;5034756;28;20456;-58
2021/05/28 06:13:04;;;;;;;10.07;7.47;;;;;;;;;;5034848;28;20449;-59
2021/05/28 06:15:30;;;;;;;9.20;7.60;;;;;;;;;;5035725;28;20460;-58
2021/05/28 06:17:57;;;;;;;13.20;7.77;;;;;;;;;;5036214;28;20806;-60
2021/05/28 06:20:24;;;;;;;9.20;7.80;;;;;;;;;;5035198;28;20535;-58
2021/05/28 06:22:51;;;;;;;8.80;7.90;;;;;;;;;;5035033;28;20452;-59
2021/05/28 06:25:19;;;;;;;9.63;8.70;;;;;;;;;;5034869;28;20606;-58
2021/05/28 06:27:45;;;;;;;13.40;8.97;;;;;;;;;;5077849;22;20520;-59
2021/05/28 06:30:13;;;;;;;9.70;7.83;;;;;;;;;;5049691;22;20535;-59
2021/05/28 06:32:40;;;;;;;9.67;7.83;;;;;;;;;;5034724;28;20460;-58
2021/05/28 06:35:07;;;;;;;13.67;8.83;;;;;;;;;;5034505;28;20528;-60
2021/05/28 06:37:34;;;;;;;12.30;8.60;;;;;;;;;;5034324;28;20948;-58
2021/05/28 06:40:00;;;;;;;11.30;9.03;;;;;;;;;;5064215;22;20489;-59
2021/05/28 06:42:28;;;;;;;10.97;9.03;;;;;;;;;;5034199;28;20941;-58
2021/05/28 06:44:55;;;;;;;10.30;8.73;;;;;;;;;;5034291;28;20441;-57
2021/05/28 06:47:22;;;;;;;10.80;9.67;;;;;;;;;;5033837;28;21000;-59
2021/05/28 06:49:49;;;;;;;13.43;9.90;;;;;;;;;;5034728;28;20465;-59
2021/05/28 06:52:16;;;;;;;12.37;11.07;;;;;;;;;;5034120;28;20441;-59
2021/05/28 06:54:42;;;;;;;11.23;10.23;;;;;;;;;;5034146;28;20449;-58
2021/05/28 06:57:09;;;;;;;11.03;9.70;;;;;;;;;;5033983;28;20437;-58
2021/05/28 06:59:37;;;;;;;11.97;9.67;;;;;;;;;;5034225;28;20472;-59
2021/05/28 07:02:06;;;;;;;10.93;9.83;;;;;;;;;;5033765;28;20453;-60
2021/05/28 07:04:32;;;;;;;9.80;8.87;;;;;;;;;;5035179;28;20457;-58
2021/05/28 07:06:59;;;;;;;10.57;9.47;;;;;;;;;;5033604;28;20992;-60
2021/05/28 07:09:26;;;;;;;11.53;10.43;;;;;;;;;;5033630;28;20488;-58
2021/05/28 07:11:53;;;;;;;11.70;8.97;;;;;;;;;;5058626;22;20492;-58
2021/05/28 07:14:19;;;;;;;10.67;9.57;;;;;;;;;;5033697;28;20445;-58
2021/05/28 07:16:47;;;;;;;11.47;9.00;;;;;;;;;;5033630;28;20445;-59
2021/05/28 07:19:14;;;;;;;9.97;9.00;;;;;;;;;;5033330;28;20875;-58
2021/05/28 07:21:41;;;;;;;11.60;9.50;;;;;;;;;;5033469;28;20492;-58
2021/05/28 07:24:08;;;;;;;10.57;9.47;;;;;;;;;;5077845;22;20566;-59
2021/05/28 07:26:35;;;;;;;13.20;9.30;;;;;;;;;;5033201;28;20844;-59
2021/05/28 07:29:01;;;;;;;10.83;9.30;;;;;;;;;;5033518;28;20808;-58
2021/05/28 07:31:28;;;;;;;11.13;10.00;;;;;;;;;;5034060;28;20841;-59
2021/05/28 07:33:56;;;;;;;12.50;9.13;;;;;;;;;;5033182;28;20514;-59
2021/05/28 07:36:23;;;;;;;12.20;9.20;;;;;;;;;;5033145;28;20452;-59
2021/05/28 07:38:50;;;;;;;10.53;9.53;;;;;;;;;;5033438;28;20449;-59
2021/05/28 07:41:17;;;;;;;13.50;8.90;;;;;;;;;;5034170;28;20456;-59
2021/05/28 07:43:43;;;;;;;11.20;8.60;;;;;;;;;;5033394;28;20461;-59
2021/05/28 07:46:10;;;;;;;11.53;8.87;;;;;;;;;;5032961;28;20783;-58
2021/05/28 07:48:37;;;;;;;10.73;8.80;;;;;;;;;;5032767;28;20945;-59
2021/05/28 07:51:05;;;;;;;13.03;9.17;;;;;;;;;;5033144;28;20567;-59
2021/05/28 07:53:32;;;;;;;12.67;9.60;;;;;;;;;;5032693;28;20469;-60
2021/05/28 07:56:00;;;;;;;9.50;8.60;;;;;;;;;;5057576;22;20492;-59
2021/05/28 07:58:29;;;;;;;10.00;8.83;;;;;;;;;;5033159;28;20445;-61
2021/05/28 08:00:55;;;;;;;8.93;8.03;;;;;;;;;;5033126;28;20441;-57
2021/05/28 08:03:22;;;;;;;13.20;9.53;;;;;;;;;;5066172;22;20500;-59
2021/05/28 08:05:50;;;;;;;11.57;9.70;;;;;;;;;;5032509;28;20429;-60
2021/05/28 08:08:19;;;;;;;11.93;8.87;;;;;;;;;;5032946;28;21003;-60
2021/05/28 08:10:46;;;;;;;9.83;8.73;;;;;;;;;;5032937;28;20499;-59
2021/05/28 08:13:12;;;;;;;10.50;8.60;;;;;;;;;;5032642;28;20465;-60
2021/05/28 08:15:39;;;;;;;14.03;9.13;;;;;;;;;;5032947;28;20450;-60
2021/05/28 08:18:06;;;;;;;11.73;8.57;;;;;;;;;;5057424;22;20846;-59
2021/05/28 08:20:33;;;;;;;10.17;9.17;;;;;;;;;;5032832;28;20507;-59
2021/05/28 08:23:00;;;;;;;13.33;10.10;;;;;;;;;;5032427;28;20987;-59
2021/05/28 08:25:28;;;;;;;11.83;9.30;;;;;;;;;;5033030;28;20449;-59
2021/05/28 08:27:55;;;;;;;11.93;9.87;;;;;;;;;;5032698;28;20992;-59
2021/05/28 08:30:22;;;;;;;10.90;8.60;;;;;;;;;;5033057;28;20452;-57
2021/05/28 08:32:49;;;;;;;11.17;8.77;;;;;;;;;;5033300;28;20499;-59
2021/05/28 08:35:16;;;;;;;9.67;8.63;;;;;;;;;;5066587;22;20485;-61
2021/05/28 08:37:43;;;;;;;11.10;8.43;;;;;;;;;;5032529;28;20765;-59
2021/05/28 08:40:10;;;;;;;10.50;8.70;;;;;;;;;;5033362;28;20449;-61
2021/05/28 08:42:38;;;;;;;15.43;8.30;;;;;;;;;;5032510;28;20449;-59
2021/05/28 08:45:06;;;;;;;10.37;8.60;;;;;;;;;;5032753;28;20464;-61
2021/05/28 08:47:33;;;;;;;12.30;8.73;;;;;;;;;;5032601;28;20476;-59
2021/05/28 08:50:00;;;;;;;10.20;8.40;;;;;;;;;;5072386;22;20566;-59
2021/05/28 08:52:27;;;;;;;12.73;9.10;;;;;;;;;;5032305;28;20452;-59
2021/05/28 08:54:54;;;;;;;12.03;9.43;;;;;;;;;;5036513;28;20491;-59
2021/05/28 08:57:22;;;;;;;13.20;10.07;;;;;;;;;;5036271;28;20449;-59
2021/05/28 08:59:50;;;;;;;10.67;9.67;;;;;;;;;;5035923;28;20465;-59
2021/05/28 09:02:30;;;;;;;10.50;9.40;;;;;;;;;;5070908;22;20489;-60
2021/05/28 09:05:08;;;;;;;10.30;9.30;;;;;;;;;;5036196;28;20448;-60
2021/05/28 09:07:34;;;;;;;10.97;9.87;;;;;;;;;;5036036;28;20480;-59
2021/05/28 09:10:01;;;;;;;10.77;8.77;;;;;;;;;;5036330;28;20444;-59
2021/05/28 09:12:28;;;;;;;11.07;8.33;;;;;;;;;;5035557;28;20461;-60
2021/05/28 09:14:56;;;;;;;9.63;8.63;;;;;;;;;;5036810;28;20498;-61
2021/05/28 09:17:23;;;;;;;10.47;9.37;;;;;;;;;;5036135;28;20441;-60
2021/05/28 09:22:19;;;;;;;10.80;9.80;;;;;;;;;;5014018;28;20473;-59
2021/05/28 09:24:46;;;;;;;10.20;9.10;;;;;;;;;;5055675;22;20491;-59
2021/05/28 09:27:22;;;;;;;9.57;8.60;;;;;;;;;;5035113;28;20484;-60
2021/05/28 09:30:03;;;;;;;10.27;9.27;;;;;;;;;;5036217;28;20452;-58
2021/05/28 09:32:30;;;;;;;11.50;10.33;;;;;;;;;;5035826;28;20445;-59
2021/05/28 09:34:57;;;;;;;10.50;8.60;;;;;;;;;;5035668;28;20479;-60
2021/05/28 09:37:35;;;;;;;10.40;8.97;;;;;;;;;;5065507;22;20995;-59
2021/05/28 09:40:06;;;;;;;10.37;8.80;;;;;;;;;;5055180;28;20456;-59
2021/05/28 09:42:46;;;;;;;10.63;9.17;;;;;;;;;;5054858;28;20862;-59
2021/05/28 09:45:21;;;;;;;10.70;9.60;;;;;;;;;;5055040;28;20954;-59
2021/05/28 09:47:48;;;;;;;10.50;9.40;;;;;;;;;;5054876;28;20491;-60
2021/05/28 09:50:15;;;;;;;13.60;12.20;;;;;;;;;;5055435;28;20440;-58
2021/05/28 09:52:43;;;;;;;11.20;10.10;;;;;;;;;;5055333;28;20888;-58
2021/05/28 09:55:10;;;;;;;9.33;8.43;;;;;;;;;;5070335;22;20540;-60
2021/05/28 10:00:24;;;;;;;11.10;9.77;;;;;;;;;;5053789;28;20233;-60
2021/05/28 10:02:50;;;;;;;12.50;11.27;;;;;;;;;;5054817;28;20444;-58
2021/05/28 10:05:24;;;;;;;11.47;10.37;;;;;;;;;;5054814;28;20513;-58
2021/05/28 10:07:51;;;;;;;13.83;11.80;;;;;;;;;;5054645;28;20486;-60
2021/05/28 10:10:18;;;;;;;12.23;11.00;;;;;;;;;;5055000;28;20443;-59
2021/05/28 10:12:47;;;;;;;12.57;11.37;;;;;;;;;;5054800;28;20452;-60
2021/05/28 10:15:15;;;;;;;15.83;12.63;;;;;;;;;;5079491;22;20516;-60
2021/05/28 10:17:42;;;;;;;14.17;12.77;;;;;;;;;;5054742;28;20441;-60
2021/05/28 10:20:10;;;;;;;14.03;11.60;;;;;;;;;;5054340;28;20444;-58
2021/05/28 10:22:36;;;;;;;12.40;10.97;;;;;;;;;;5054316;28;20444;-59
2021/05/28 10:25:05;;;;;;;11.73;10.53;;;;;;;;;;5054357;28;20472;-61
2021/05/28 10:27:32;;;;;;;11.20;10.13;;;;;;;;;;5055007;28;21003;-61
2021/05/28 10:29:59;;;;;;;12.20;10.47;;;;;;;;;;5070588;22;20464;-60
2021/05/28 10:32:26;;;;;;;11.13;10.00;;;;;;;;;;5054404;28;20464;-58
2021/05/28 10:35:13;;;;;;;11.57;10.47;;;;;;;;;;5054398;28;20444;-58
2021/05/28 10:37:41;;;;;;;11.13;10.03;;;;;;;;;;5054075;28;20420;-58
2021/05/28 10:40:23;;;;;;;11.57;10.47;;;;;;;;;;5053868;28;20530;-61
2021/05/28 10:43:04;;;;;;;16.13;12.97;;;;;;;;;;5053965;28;20448;-60
2021/05/28 10:45:49;;;;;;;11.87;10.60;;;;;;;;;;5053628;28;20436;-59
2021/05/28 10:48:16;;;;;;;13.07;10.70;;;;;;;;;;5069679;22;20494;-60
2021/05/28 10:50:49;;;;;;;12.33;11.23;;;;;;;;;;5053954;28;20982;-61
2021/05/28 10:53:16;;;;;;;10.90;9.80;;;;;;;;;;5053643;28;20436;-59
2021/05/28 10:56:00;;;;;;;8.27;7.50;;;;;;;;;;5053565;28;20440;-61
2021/05/28 10:58:42;;;;;;;11.40;7.87;;;;;;;;;;5053231;28;20806;-60
2021/05/28 11:01:36;;;;;;;9.63;8.70;;;;;;;;;;5054197;28;20483;-61
2021/05/28 11:04:04;;;;;;;9.00;8.20;;;;;;;;;;5054158;28;20444;-59
2021/05/28 11:06:32;;;;;;;7.83;7.13;;;;;;;;;;5054194;28;20440;-60
2021/05/28 11:09:04;;;;;;;8.90;8.00;;;;;;;;;;5053731;28;20471;-60
2021/05/28 11:11:58;;;;;;;11.23;7.50;;;;;;;;;;5054086;28;20424;-61
2021/05/28 11:14:25;;;;;;;7.30;6.60;;;;;;;;;;5078084;22;20480;-61
2021/05/28 11:17:06;;;;;;;8.43;7.43;;;;;;;;;;5052822;28;20447;-61
2021/05/28 11:19:34;;;;;;;7.33;6.67;;;;;;;;;;5053692;28;20526;-62
2021/05/28 11:22:03;;;;;;;7.30;6.60;;;;;;;;;;5053621;28;20448;-61
2021/05/28 11:24:42;;;;;;;8.13;7.33;;;;;;;;;;5053400;28;20487;-61
2021/05/28 11:27:11;;;;;;;9.47;7.63;;;;;;;;;;5053823;28;20463;-61
2021/05/28 11:29:38;;;;;;;8.67;7.87;;;;;;;;;;5078079;22;20496;-60
2021/05/28 11:32:29;;;;;;;8.77;7.33;;;;;;;;;;5053484;28;20444;-59
2021/05/28 11:35:14;;;;;;;9.83;8.83;;;;;;;;;;5054373;28;20471;-60
2021/05/28 11:37:43;;;;;;;10.20;8.33;;;;;;;;;;5053922;28;20506;-60
2021/05/28 11:40:13;;;;;;;10.93;9.73;;;;;;;;;;5053404;28;20464;-60
2021/05/28 11:42:41;;;;;;;10.57;8.53;;;;;;;;;;5053055;28;20936;-59
2021/05/28 11:45:08;;;;;;;13.80;8.70;;;;;;;;;;5084912;22;21416;-61
2021/05/28 11:47:36;;;;;;;10.13;9.10;;;;;;;;;;5052090;28;20518;-61
2021/05/28 11:50:04;;;;;;;8.47;7.63;;;;;;;;;;5052721;28;20535;-63
2021/05/28 11:52:31;;;;;;;7.83;7.07;;;;;;;;;;5052163;28;20456;-59
2021/05/28 11:55:12;;;;;;;9.70;8.70;;;;;;;;;;5052631;28;20455;-61
2021/05/28 11:57:39;;;;;;;8.07;7.37;;;;;;;;;;5052617;28;20523;-60
2021/05/28 12:00:08;;;;;;;8.30;7.60;;;;;;;;;;5053855;28;20455;-62
2021/05/28 12:02:46;;;;;;;9.23;7.20;;;;;;;;;;5054007;28;20452;-60
2021/05/28 12:05:30;;;;;;;7.83;6.73;;;;;;;;;;5052616;28;20464;-62
2021/05/28 12:07:58;;;;;;;7.53;6.77;;;;;;;;;;5052382;28;20553;-61
2021/05/28 12:10:26;;;;;;;6.43;5.73;;;;;;;;;;5052473;28;21021;-61
2021/05/28 12:13:01;;;;;;;6.50;5.93;;;;;;;;;;5052743;28;20498;-61
2021/05/28 12:15:30;;;;;;;7.07;5.70;;;;;;;;;;5052710;28;20878;-62
2021/05/28 12:17:57;;;;;;;5.37;4.87;;;;;;;;;;5052412;28;20452;-60
2021/05/28 12:20:25;;;;;;;8.63;6.47;;;;;;;;;;5052313;28;20444;-60
2021/05/28 12:22:59;;;;;;;5.57;5.07;;;;;;;;;;5052500;28;20451;-60
2021/05/28 12:25:27;;;;;;;5.33;4.60;;;;;;;;;;5052461;28;21034;-60
2021/05/28 12:27:54;;;;;;;5.00;4.40;;;;;;;;;;5052922;28;20472;-61
2021/05/28 12:30:25;;;;;;;6.17;5.00;;;;;;;;;;5056771;28;20436;-64
2021/05/28 12:32:52;;;;;;;5.70;5.20;;;;;;;;;;5056738;28;20444;-60
2021/05/28 12:35:19;;;;;;;6.40;5.50;;;;;;;;;;5056344;28;20815;-61
2021/05/28 12:38:18;;;;;;;7.20;5.80;;;;;;;;;;5056432;28;20940;-64
2021/05/28 12:40:47;;;;;;;4.83;4.43;;;;;;;;;;5014499;28;20809;-63
2021/05/28 12:43:19;;;;;;;6.80;5.17;;;;;;;;;;5014532;28;20458;-62
2021/05/28 12:45:46;;;;;;;5.73;5.13;;;;;;;;;;5035401;28;20471;-61
2021/05/28 12:48:13;;;;;;;5.93;5.33;;;;;;;;;;5055903;28;20471;-62
2021/05/28 12:50:40;;;;;;;6.60;5.90;;;;;;;;;;5056214;28;20525;-62
2021/05/28 12:53:11;;;;;;;6.33;5.73;;;;;;;;;;5056240;28;20809;-63
2021/05/28 12:55:39;;;;;;;5.80;5.20;;;;;;;;;;5056271;28;20460;-64
2021/05/28 12:58:20;;;;;;;6.63;5.93;;;;;;;;;;5055659;28;20471;-62
2021/05/28 13:00:53;;;;;;;8.47;6.20;;;;;;;;;;5057007;28;20508;-63
2021/05/28 13:03:31;;;;;;;5.70;5.20;;;;;;;;;;5055507;28;20849;-63
2021/05/28 13:05:58;;;;;;;5.93;5.10;;;;;;;;;;5055837;28;20467;-61
2021/05/28 13:08:31;;;;;;;5.23;4.73;;;;;;;;;;5055917;28;20472;-62
2021/05/28 13:10:58;;;;;;;4.57;4.17;;;;;;;;;;5055885;28;20468;-62
2021/05/28 13:13:26;;;;;;;5.30;4.20;;;;;;;;;;5055863;28;20452;-62
2021/05/28 13:15:53;;;;;;;5.50;4.10;;;;;;;;;;5055571;28;20983;-62
2021/05/28 13:18:20;;;;;;;6.33;3.97;;;;;;;;;;5055940;28;20444;-62
2021/05/28 13:20:47;;;;;;;3.47;3.17;;;;;;;;;;5055696;28;20448;-62
2021/05/28 13:23:18;;;;;;;6.27;4.27;;;;;;;;;;5055850;28;20490;-61
2021/05/28 13:25:47;;;;;;;5.80;4.80;;;;;;;;;;5055842;28;20545;-62
2021/05/28 13:28:15;;;;;;;3.43;3.13;;;;;;;;;;5055444;28;21045;-60
2021/05/28 13:30:43;;;;;;;3.43;2.90;;;;;;;;;;5055554;28;20444;-60
2021/05/28 13:33:28;;;;;;;4.50;2.97;;;;;;;;;;5055081;28;20448;-61
2021/05/28 13:35:56;;;;;;;3.80;3.10;;;;;;;;;;5055592;28;20538;-61
2021/05/28 13:38:23;;;;;;;5.20;4.70;;;;;;;;;;5055516;28;20440;-61
2021/05/28 13:40:50;;;;;;;6.33;5.70;;;;;;;;;;5055256;28;20443;-61
2021/05/28 13:43:18;;;;;;;5.30;4.80;;;;;;;;;;5055056;28;20460;-61
2021/05/28 13:45:46;;;;;;;7.40;5.40;;;;;;;;;;5055116;28;20472;-61
2021/05/28 13:48:13;;;;;;;5.73;4.67;;;;;;;;;;5055074;28;20482;-61
2021/05/28 13:50:40;;;;;;;10.57;3.97;;;;;;;;;;5054971;28;20452;-61
2021/05/28 13:53:07;;;;;;;6.20;4.53;;;;;;;;;;5055224;28;20510;-61
2021/05/28 13:55:36;;;;;;;4.50;3.37;;;;;;;;;;5055105;28;20466;-61
2021/05/28 13:58:04;;;;;;;6.00;4.40;;;;;;;;;;5055242;28;20494;-61
2021/05/28 14:00:31;;;;;;;6.57;4.63;;;;;;;;;;5055188;28;20513;-60
2021/05/28 14:02:58;;;;;;;6.30;4.13;;;;;;;;;;5055197;28;20963;-61
2021/05/28 14:05:25;;;;;;;5.13;3.80;;;;;;;;;;5054604;28;20476;-62
2021/05/28 14:07:53;;;;;;;5.93;3.70;;;;;;;;;;5054480;28;20471;-62
2021/05/28 14:10:20;;;;;;;5.23;4.30;;;;;;;;;;5054884;28;20455;-62
2021/05/28 14:12:47;;;;;;;5.60;3.70;;;;;;;;;;5054622;28;20452;-62
2021/05/28 14:15:14;;;;;;;4.23;3.30;;;;;;;;;;5054547;28;20464;-61
2021/05/28 14:17:41;;;;;;;4.23;3.83;;;;;;;;;;5054681;28;20452;-61
2021/05/28 14:20:10;;;;;;;4.10;3.20;;;;;;;;;;5054758;28;20440;-61
2021/05/28 14:22:37;;;;;;;6.10;3.27;;;;;;;;;;5054525;28;20444;-61
2021/05/28 14:25:05;;;;;;;5.80;3.30;;;;;;;;;;5054392;28;20490;-61
2021/05/28 14:27:31;;;;;;;4.03;3.20;;;;;;;;;;5054667;28;20475;-61
2021/05/28 14:29:58;;;;;;;5.67;3.03;;;;;;;;;;5055719;28;20453;-60
2021/05/28 14:32:27;;;;;;;4.07;2.90;;;;;;;;;;5054775;28;20817;-60
2021/05/28 14:34:54;;;;;;;3.60;3.30;;;;;;;;;;5054339;28;20451;-61
2021/05/28 14:37:22;;;;;;;5.43;2.70;;;;;;;;;;5054124;28;20436;-61
2021/05/28 14:39:48;;;;;;;4.40;3.53;;;;;;;;;;5054761;28;20501;-60
2021/05/28 14:42:15;;;;;;;7.23;3.00;;;;;;;;;;5055116;28;20450;-61
2021/05/28 14:44:42;;;;;;;3.37;2.33;;;;;;;;;;5054244;28;20500;-61
2021/05/28 14:47:09;;;;;;;5.67;3.60;;;;;;;;;;5054405;28;20488;-61
2021/05/28 14:49:35;;;;;;;4.00;2.90;;;;;;;;;;5054289;28;20491;-61
2021/05/28 14:52:02;;;;;;;4.23;2.80;;;;;;;;;;5053388;28;20448;-60